Time;durP1;ratioP1;P1;durP2;ratioP2;P2;SDS_P1;SDS_P2;PMS_P1;PMS_P2;Temp;Humidity;BMP_temperature;BMP_pressure;BME280_temperature;BME280_humidity;BME280_pressure;Samples;Min_cycle;Max_cycle;Signal;HPM_P1;HPM_P2
2021/11/12 00:12:43;;;;;;;27.90;16.10;;;;;;;1.14;72.80;94168.56;5092840;28;20077;-59
2021/11/12 00:15:11;;;;;;;50.78;23.08;;;;;;;1.24;71.11;94173.44;5092594;28;20424;-59
2021/11/12 00:17:36;;;;;;;49.05;19.20;;;;;;;1.22;71.31;94172.41;5092630;28;20035;-59
2021/11/12 00:20:03;;;;;;;37.83;16.52;;;;;;;1.13;71.17;94162.38;5092630;28;20047;-59
2021/11/12 00:22:29;;;;;;;30.98;14.45;;;;;;;1.06;71.17;94154.59;5092457;28;20471;-59
2021/11/12 00:24:56;;;;;;;25.30;14.05;;;;;;;1.18;71.51;94166.41;5092505;28;20028;-59
2021/11/12 00:27:22;;;;;;;23.67;14.27;;;;;;;1.21;70.95;94163.50;5092491;28;20024;-59
2021/11/12 00:32:27;;;;;;;23.55;13.68;;;;;;;1.26;70.53;94162.84;5112384;28;20036;-57
2021/11/12 00:43:03;;;;;;;14.57;9.52;;;;;;;1.21;70.32;94154.59;5112668;27;20484;-54
2021/11/12 00:45:32;;;;;;;15.02;9.88;;;;;;;1.24;69.41;94148.19;5112442;28;20043;-50
2021/11/12 00:55:44;;;;;;;36.03;14.38;;;;;;;0.92;70.70;94141.78;5091975;28;20096;-49
2021/11/12 00:58:13;;;;;;;36.88;18.23;;;;;;;0.92;70.83;94130.91;5091531;28;20032;-50
2021/11/12 01:00:39;;;;;;;36.92;18.55;;;;;;;0.78;71.22;94139.78;5108420;28;20038;-50
2021/11/12 01:03:04;;;;;;;30.58;15.93;;;;;;;0.73;71.63;94143.94;5111972;28;20028;-50
2021/11/12 01:05:30;;;;;;;26.92;14.68;;;;;;;0.71;71.99;94135.47;5111133;28;20507;-51
2021/11/12 01:08:00;;;;;;;30.02;15.77;;;;;;;0.35;72.68;94132.38;5110764;28;20035;-49
2021/11/12 01:10:27;;;;;;;27.23;15.63;;;;;;;0.38;73.38;94134.16;5111984;28;20031;-48
2021/11/12 01:12:53;;;;;;;26.15;15.32;;;;;;;0.35;72.12;94135.09;5111663;28;20026;-51
2021/11/12 01:15:20;;;;;;;28.25;14.70;;;;;;;0.49;72.93;94131.66;5111545;28;20024;-49
2021/11/12 01:17:47;;;;;;;30.73;16.88;;;;;;;0.47;72.19;94134.84;5111607;28;20114;-49
2021/11/12 01:20:15;;;;;;;22.45;14.15;;;;;;;0.61;72.55;94133.34;5111609;28;20034;-49
2021/11/12 01:22:41;;;;;;;23.15;12.77;;;;;;;0.39;72.72;94120.09;5111455;28;20515;-48
2021/11/12 01:25:10;;;;;;;13.57;8.75;;;;;;;0.52;71.76;94123.31;5111597;28;20038;-51
2021/11/12 01:27:37;;;;;;;16.92;10.55;;;;;;;0.53;71.76;94126.78;5111416;28;20556;-52
2021/11/12 01:30:03;;;;;;;12.88;9.05;;;;;;;0.37;71.80;94127.97;5111085;28;20522;-55
2021/11/12 01:32:30;;;;;;;17.00;10.60;;;;;;;0.35;72.39;94102.50;5101841;28;20043;-57
2021/11/12 01:34:57;;;;;;;20.77;11.57;;;;;;;0.37;72.66;94111.69;5094890;28;20064;-58
2021/11/12 01:37:25;;;;;;;16.63;9.52;;;;;;;0.29;72.50;94120.66;5091272;28;20036;-58
2021/11/12 01:39:55;;;;;;;18.88;10.65;;;;;;;0.32;72.11;94117.78;5090906;28;20028;-58
2021/11/12 01:42:23;;;;;;;15.98;10.57;;;;;;;0.35;72.63;94122.25;5090802;28;20039;-58
2021/11/12 01:45:00;;;;;;;16.50;10.27;;;;;;;0.54;72.44;94118.16;5091118;28;20023;-58
2021/11/12 01:47:36;;;;;;;20.60;11.73;;;;;;;0.52;71.87;94107.00;5090786;28;20032;-60
2021/11/12 01:50:16;;;;;;;18.08;12.18;;;;;;;0.51;71.82;94110.94;5106092;28;20036;-60
2021/11/12 01:52:45;;;;;;;25.70;11.73;;;;;;;0.46;72.22;94119.00;5111364;28;20019;-59
2021/11/12 01:55:47;;;;;;;20.77;11.20;;;;;;;0.48;72.06;94119.28;5111322;28;20039;-59
2021/11/12 02:00:48;;;;;;;17.00;8.02;;;;;;;0.36;71.17;94115.63;5092868;28;20105;-58
2021/11/12 02:03:13;;;;;;;17.05;9.40;;;;;;;0.34;70.85;94117.31;5090782;28;20497;-58
2021/11/12 02:05:39;;;;;;;17.73;9.95;;;;;;;0.24;71.48;94107.75;5090444;28;20032;-59
2021/11/12 02:08:05;;;;;;;14.82;10.30;;;;;;;-0.37;71.73;94034.03;5090787;28;20035;-59
2021/11/12 02:10:31;;;;;;;12.32;8.27;;;;;;;-0.11;71.79;94100.16;5090406;28;20411;-59
2021/11/12 02:13:08;;;;;;;30.88;14.50;;;;;;;-0.32;73.02;94106.66;5090505;28;20031;-59
2021/11/12 02:15:37;;;;;;;34.30;17.83;;;;;;;-0.19;73.86;94109.88;5090698;28;20107;-58
2021/11/12 02:18:15;;;;;;;42.38;22.95;;;;;;;-0.14;73.03;94106.53;5088810;28;20016;-59
2021/11/12 02:20:56;;;;;;;31.95;16.40;;;;;;;0.12;72.64;94100.59;5089220;28;20036;-54
2021/11/12 02:23:28;;;;;;;26.38;14.25;;;;;;;0.11;72.79;94097.13;5090150;28;20024;-56
2021/11/12 02:25:54;;;;;;;29.92;16.58;;;;;;;0.21;71.74;94097.81;5090640;28;20024;-57
2021/11/12 02:28:20;;;;;;;36.75;17.48;;;;;;;0.05;72.01;94093.56;5090353;28;20024;-57
2021/11/12 02:30:51;;;;;;;32.75;18.40;;;;;;;-0.06;72.81;94094.09;5101351;28;20051;-57
2021/11/12 02:33:21;;;;;;;28.65;16.33;;;;;;;-0.03;72.82;94092.44;5110661;28;20039;-57
2021/11/12 02:36:07;;;;;;;30.65;16.20;;;;;;;0.10;72.48;94089.44;5110695;28;20553;-58
2021/11/12 02:38:35;;;;;;;27.38;16.05;;;;;;;0.24;72.43;94077.88;5110523;28;20031;-56
2021/11/12 02:41:02;;;;;;;16.63;9.35;;;;;;;0.06;71.26;94078.03;5110227;28;20034;-57
2021/11/12 02:43:27;;;;;;;13.10;7.70;;;;;;;-0.10;71.23;94073.78;5110368;28;20500;-57
2021/11/12 02:45:54;;;;;;;12.73;7.38;;;;;;;-0.29;71.95;94072.44;5098257;28;20053;-57
2021/11/12 02:48:20;;;;;;;9.57;5.97;;;;;;;-0.29;71.65;94077.84;5090239;28;20057;-57
2021/11/12 02:50:46;;;;;;;11.95;5.97;;;;;;;-0.19;71.69;94071.91;5090361;28;20101;-56
2021/11/12 02:53:14;;;;;;;9.27;5.82;;;;;;;-0.38;71.87;94072.50;5089910;28;20020;-59
2021/11/12 02:55:41;;;;;;;10.90;6.20;;;;;;;-0.25;72.04;94070.28;5089909;28;20024;-59
2021/11/12 02:58:07;;;;;;;12.60;7.43;;;;;;;-0.16;71.66;94070.22;5089801;28;20111;-59
2021/11/12 03:00:33;;;;;;;10.52;6.50;;;;;;;-0.09;71.17;94067.16;5106151;28;20111;-58
2021/11/12 03:02:59;;;;;;;13.50;7.63;;;;;;;-0.17;71.53;94068.72;5110214;28;20028;-58
2021/11/12 03:05:25;;;;;;;15.82;8.38;;;;;;;-0.32;71.37;94065.22;5110460;28;20458;-57
2021/11/12 03:07:50;;;;;;;11.82;7.13;;;;;;;-0.47;71.96;94067.13;5110487;28;20039;-58
2021/11/12 03:10:16;;;;;;;11.73;6.72;;;;;;;-0.68;72.06;94051.91;5110415;28;20408;-58
2021/11/12 03:12:43;;;;;;;11.98;6.78;;;;;;;-0.66;72.46;94069.22;5110149;28;20382;-57
2021/11/12 03:15:10;;;;;;;10.43;6.50;;;;;;;-0.57;72.56;94068.41;5110070;28;20035;-58
2021/11/12 03:17:36;;;;;;;12.65;6.80;;;;;;;-0.46;71.73;94061.25;5110283;28;20644;-55
2021/11/12 03:20:04;;;;;;;12.48;6.55;;;;;;;-0.41;71.67;94057.16;5108942;28;20023;-55
2021/11/12 03:22:36;;;;;;;11.48;6.57;;;;;;;-0.54;72.67;94060.09;5109783;28;20043;-55
2021/11/12 03:25:08;;;;;;;11.95;7.30;;;;;;;-0.63;72.10;94052.03;5110271;28;20062;-54
2021/11/12 03:27:40;;;;;;;55.80;18.08;;;;;;;-0.89;73.46;94056.41;5110404;28;20089;-56
2021/11/12 04:05:19;;;;;;;25.45;10.57;;;;;;;-1.03;71.59;94038.84;5113271;28;20508;-51
2021/11/12 04:21:09;;;;;;;35.10;16.40;;;;;;;-1.08;72.85;94038.72;5112611;28;20019;-49
2021/11/12 04:41:01;;;;;;;22.85;11.32;;;;;;;-1.21;72.67;94028.09;5111337;28;20503;-58
2021/11/12 05:33:41;;;;;;;12.65;7.68;;;;;;;-1.47;71.04;94035.13;5079019;28;20777;-57
2021/11/12 05:56:07;;;;;;;14.93;10.55;;;;;;;-1.43;73.91;94048.53;5103301;28;20080;-58
2021/11/12 05:58:32;;;;;;;19.35;10.35;;;;;;;-1.32;74.07;94041.38;5090287;28;20509;-59
2021/11/12 06:00:58;;;;;;;16.30;10.23;;;;;;;-1.10;73.48;94041.13;5109634;28;20160;-58
2021/11/12 06:03:24;;;;;;;17.25;10.10;;;;;;;-1.04;72.96;94033.91;5105874;28;20394;-57
2021/11/12 06:05:49;;;;;;;16.30;9.82;;;;;;;-0.99;73.14;94035.97;5110646;28;20073;-56
2021/11/12 06:08:16;;;;;;;15.07;11.02;;;;;;;-0.97;72.92;94037.00;5110654;28;20031;-50
2021/11/12 06:10:42;;;;;;;43.45;22.65;;;;;;;-0.94;72.44;94035.34;5101854;28;20028;-55
2021/11/12 06:13:07;;;;;;;68.25;31.45;;;;;;;-0.91;71.78;94040.59;5089985;28;20107;-55
2021/11/12 06:15:34;;;;;;;40.80;23.10;;;;;;;-1.09;72.07;94039.94;5090277;28;20472;-49
2021/11/12 06:18:00;;;;;;;51.97;27.55;;;;;;;-0.87;72.17;94037.72;5090054;28;20532;-54
2021/11/12 06:20:26;;;;;;;64.78;31.02;;;;;;;-0.68;71.27;94030.97;5090004;28;20028;-51
2021/11/12 06:22:52;;;;;;;71.38;36.53;;;;;;;-0.76;71.54;94038.69;5089908;28;20507;-51
2021/11/12 06:25:17;;;;;;;79.60;37.50;;;;;;;-0.50;72.20;94039.00;5094166;28;20027;-55
2021/11/12 06:27:43;;;;;;;45.72;24.13;;;;;;;-0.49;72.07;94034.28;5098487;28;20069;-54
2021/11/12 06:30:10;;;;;;;42.85;23.27;;;;;;;-0.36;72.06;94030.13;5093204;28;20028;-55
2021/11/12 06:32:36;;;;;;;32.78;21.83;;;;;;;-0.25;72.41;94032.31;5107963;28;20039;-54
2021/11/12 06:35:02;;;;;;;54.88;25.98;;;;;;;-0.22;72.97;94029.41;5092590;28;20039;-51
2021/11/12 06:37:28;;;;;;;101.70;42.30;;;;;;;-0.14;72.64;94021.66;5086706;28;20028;-52
2021/11/12 06:39:53;;;;;;;317.23;129.38;;;;;;;-0.21;72.84;94036.34;5087806;28;20558;-54
2021/11/12 06:42:20;;;;;;;211.38;92.85;;;;;;;-0.11;73.50;94032.31;5088115;28;20606;-52
2021/11/12 06:50:15;;;;;;;97.55;51.60;;;;;;;1.98;67.97;94026.94;5075742;28;20024;-54
2021/11/12 06:52:43;;;;;;;71.70;38.65;;;;;;;2.74;65.39;94028.91;5087438;28;20048;-54
2021/11/12 06:55:10;;;;;;;87.67;50.50;;;;;;;3.66;62.42;94023.00;5088075;28;20052;-56
2021/11/12 06:57:36;;;;;;;81.65;47.92;;;;;;;4.33;60.13;94016.50;5095576;28;20026;-53
2021/11/12 07:00:05;;;;;;;64.72;38.22;;;;;;;4.98;58.20;94016.28;5092768;28;20032;-55
2021/11/12 07:02:31;;;;;;;;;;;;;;;5.55;56.96;94018.41;5096167;28;20055;-53
2021/11/12 07:04:56;;;;;;;69.15;34.28;;;;;;;6.33;55.11;94005.91;5112904;28;19939;-55
2021/11/12 07:07:22;;;;;;;57.63;30.45;;;;;;;7.38;52.07;94002.34;5114525;28;20027;-57
2021/11/12 07:09:48;;;;;;;36.47;21.73;;;;;;;8.21;50.63;94001.38;5114209;28;20410;-54
2021/11/12 07:12:15;;;;;;;39.25;20.70;;;;;;;8.72;49.38;93998.69;5111334;28;20020;-52
2021/11/12 07:14:42;;;;;;;23.80;14.40;;;;;;;9.26;47.47;93990.06;5111976;28;20056;-56
2021/11/12 07:17:07;;;;;;;16.42;12.07;;;;;;;9.09;47.56;93982.84;5092408;28;20027;-56
2021/11/12 07:19:33;;;;;;;38.05;16.23;;;;;;;8.76;48.72;93983.34;5107251;28;20095;-58
2021/11/12 07:21:59;;;;;;;19.83;13.85;;;;;;;8.33;49.91;93988.25;5111666;28;20553;-59
2021/11/12 07:24:25;;;;;;;23.15;16.30;;;;;;;8.51;50.55;93979.22;5110257;28;20579;-59
2021/11/12 07:26:51;;;;;;;21.17;15.35;;;;;;;8.69;49.92;93983.22;5110144;28;20023;-59
2021/11/12 07:29:19;;;;;;;30.80;21.13;;;;;;;8.61;50.59;93979.59;5110298;27;20016;-59
2021/11/12 07:31:45;;;;;;;29.17;19.92;;;;;;;9.13;50.17;93983.25;5091731;28;20063;-60
2021/11/12 07:34:11;;;;;;;52.60;32.35;;;;;;;10.18;48.37;93979.81;5110468;28;20115;-58
2021/11/12 07:36:39;;;;;;;91.85;54.70;;;;;;;10.47;46.12;93984.94;5110042;28;20032;-56
2021/11/12 07:39:18;;;;;;;80.40;55.20;;;;;;;11.20;44.89;93984.00;5110694;28;20024;-58
2021/11/12 07:47:13;;;;;;;56.75;38.20;;;;;;;14.06;39.25;93969.63;5111263;28;20041;-60
2021/11/12 07:49:42;;;;;;;42.13;31.20;;;;;;;13.72;39.43;93969.31;5109094;28;20027;-53
2021/11/12 07:52:08;;;;;;;;;;;;;;;13.62;39.81;93969.16;5097632;28;20039;-59
2021/11/12 07:54:34;;;;;;;25.35;18.27;;;;;;;13.08;40.88;93956.53;5103768;28;20319;-60
2021/11/12 07:57:01;;;;;;;18.98;14.00;;;;;;;13.60;40.28;93966.16;5096218;28;20031;-59
2021/11/12 07:59:28;;;;;;;15.40;9.75;;;;;;;14.99;38.52;93956.28;5102835;28;20023;-60
2021/11/12 08:01:54;;;;;;;10.20;7.55;;;;;;;16.36;36.21;93951.00;5106639;28;20448;-60
2021/11/12 08:04:19;;;;;;;9.60;7.57;;;;;;;17.43;33.87;93952.56;5105801;28;20114;-59
2021/11/12 08:06:49;;;;;;;10.98;8.82;;;;;;;18.28;33.33;93956.16;5109670;27;20526;-60
2021/11/12 08:09:17;;;;;;;11.90;7.75;;;;;;;18.99;30.72;93952.91;5089348;28;20509;-60
2021/11/12 08:22:25;;;;;;;15.70;13.93;;;;;;;21.93;26.72;93947.81;5110205;28;20026;-59
2021/11/12 08:25:05;;;;;;;24.38;21.83;;;;;;;22.08;26.94;93950.13;5110076;28;20076;-59
2021/11/12 08:42:01;;;;;;;11.82;8.40;;;;;;;24.24;23.14;93940.34;5108783;28;20570;-59
2021/11/12 08:46:55;;;;;;;9.38;7.28;;;;;;;24.59;22.38;93931.50;5101067;28;20027;-60
2021/11/12 08:49:31;;;;;;;6.50;4.80;;;;;;;24.74;21.60;93933.66;5103409;28;20530;-59
2021/11/12 08:51:58;;;;;;;6.15;5.55;;;;;;;23.50;22.50;93928.66;5103682;28;20042;-59
2021/11/12 08:54:28;;;;;;;3.72;3.40;;;;;;;24.12;20.81;93930.53;5103082;28;20918;-59
2021/11/12 08:56:54;;;;;;;2.30;2.10;;;;;;;24.16;20.10;93933.56;5102716;28;20097;-58
2021/11/12 08:59:20;;;;;;;7.18;2.88;;;;;;;23.93;18.41;93932.38;5102892;28;20035;-59
2021/11/12 09:01:45;;;;;;;4.93;3.42;;;;;;;23.22;19.95;93916.56;5106123;28;20062;-59
2021/11/12 09:04:12;;;;;;;8.18;3.83;;;;;;;23.00;21.09;93920.97;5122974;27;20057;-59
2021/11/12 09:06:38;;;;;;;4.93;3.40;;;;;;;23.43;21.08;93917.69;5122852;27;20419;-59
2021/11/12 09:09:04;;;;;;;3.42;3.10;;;;;;;22.96;21.20;93915.13;5115867;27;20073;-59
2021/11/12 09:11:29;;;;;;;6.22;3.40;;;;;;;24.29;19.87;93913.06;5102546;28;20031;-59
2021/11/12 09:13:59;;;;;;;5.05;4.05;;;;;;;25.32;18.60;93908.25;5116313;28;20027;-59
2021/11/12 09:16:36;;;;;;;11.45;3.30;;;;;;;25.26;17.82;93916.44;5125731;27;20446;-59
2021/11/12 09:19:06;;;;;;;4.00;2.88;;;;;;;25.66;16.68;93914.06;5125818;27;20050;-58
2021/11/12 09:21:33;;;;;;;7.50;3.67;;;;;;;26.28;16.91;93911.19;5119238;27;20020;-58
2021/11/12 09:23:59;;;;;;;6.50;4.10;;;;;;;26.43;16.54;93906.84;5113682;28;20541;-59
2021/11/12 09:26:24;;;;;;;6.93;4.65;;;;;;;26.95;16.84;93906.22;5109444;28;20110;-59
2021/11/12 09:28:50;;;;;;;4.93;4.15;;;;;;;27.03;16.03;93904.44;5111826;28;20557;-57
2021/11/12 09:31:17;;;;;;;6.00;4.60;;;;;;;27.46;15.90;93895.50;5112878;28;20108;-58
2021/11/12 09:33:44;;;;;;;9.15;5.03;;;;;;;28.01;15.78;93889.78;5113828;28;20102;-59
2021/11/12 09:36:10;;;;;;;11.18;9.98;;;;;;;27.30;15.65;93885.63;5105871;27;20020;-58
2021/11/12 09:38:38;;;;;;;11.15;9.02;;;;;;;26.72;16.43;93881.91;5099371;28;20040;-59
2021/11/12 09:41:05;;;;;;;10.10;7.30;;;;;;;27.15;16.51;93883.63;5092624;28;20508;-60
2021/11/12 09:43:31;;;;;;;14.60;8.88;;;;;;;27.70;16.48;93881.50;5093328;28;20028;-59
2021/11/12 09:45:57;;;;;;;6.07;4.43;;;;;;;27.01;16.08;93870.34;5093076;28;20573;-58
2021/11/12 09:48:23;;;;;;;9.02;6.82;;;;;;;27.30;15.97;93872.19;5092557;28;20020;-58
2021/11/12 09:50:49;;;;;;;10.05;7.00;;;;;;;27.80;15.87;93879.06;5091441;28;20028;-59
2021/11/12 09:53:15;;;;;;;6.50;5.13;;;;;;;27.96;15.26;93865.44;5091065;28;20019;-59
2021/11/12 09:55:41;;;;;;;4.50;3.03;;;;;;;27.63;15.97;93863.56;5088807;28;20016;-59
2021/11/12 09:58:07;;;;;;;3.80;3.35;;;;;;;27.74;15.35;93856.84;5089977;28;20390;-59
2021/11/12 10:00:34;;;;;;;5.70;4.72;;;;;;;27.18;16.39;93860.38;5089781;28;20084;-59
2021/11/12 10:03:02;;;;;;;2.67;2.00;;;;;;;26.80;17.03;93858.88;5103281;28;20019;-59
2021/11/12 10:05:46;;;;;;;5.03;2.30;;;;;;;27.12;16.69;93853.72;5112569;28;20427;-58
2021/11/12 10:08:20;;;;;;;3.47;2.28;;;;;;;27.08;17.21;93850.75;5112416;28;20016;-58
2021/11/12 10:10:50;;;;;;;2.35;2.13;;;;;;;27.67;17.28;93846.69;5113256;28;20477;-59
2021/11/12 10:13:31;;;;;;;3.88;3.28;;;;;;;27.53;17.05;93826.31;5113248;28;20015;-59
2021/11/12 10:19:18;;;;;;;8.77;5.13;;;;;;;27.36;17.43;93837.69;5094152;28;20567;-58
2021/11/12 10:21:54;;;;;;;4.95;4.45;;;;;;;27.35;17.39;93833.38;5110668;28;20039;-58
2021/11/12 10:24:30;;;;;;;4.13;3.10;;;;;;;27.04;17.05;93832.22;5113027;28;20024;-58
2021/11/12 10:27:08;;;;;;;7.55;4.45;;;;;;;27.05;16.45;93824.44;5112521;28;20020;-58
2021/11/12 10:29:57;;;;;;;4.97;3.20;;;;;;;27.17;17.50;93805.06;5112657;28;20062;-59
2021/11/12 10:32:32;;;;;;;4.28;2.72;;;;;;;27.47;16.72;93820.41;5094458;28;20401;-59
2021/11/12 10:35:06;;;;;;;6.10;3.00;;;;;;;27.38;15.49;93812.97;5096018;28;20054;-58
2021/11/12 10:37:33;;;;;;;5.03;3.22;;;;;;;26.54;16.75;93820.94;5092676;28;20075;-58
2021/11/12 10:40:05;;;;;;;6.20;3.38;;;;;;;26.51;16.71;93802.44;5092111;28;20074;-58
2021/11/12 10:42:36;;;;;;;3.92;2.67;;;;;;;26.70;17.22;93807.44;5092062;28;20050;-58
2021/11/12 10:45:08;;;;;;;7.80;4.55;;;;;;;27.07;17.37;93803.97;5091741;28;20566;-59
2021/11/12 10:47:35;;;;;;;4.13;3.10;;;;;;;26.93;17.41;93806.97;5091836;28;20027;-59
2021/11/12 10:50:06;;;;;;;3.50;2.22;;;;;;;26.86;16.53;93800.34;5091329;28;20095;-58
2021/11/12 10:52:32;;;;;;;2.42;2.13;;;;;;;26.53;16.15;93806.06;5092052;28;20024;-58
2021/11/12 10:55:18;;;;;;;8.40;3.22;;;;;;;26.26;17.66;93801.44;5098655;28;20023;-58
2021/11/12 10:57:51;;;;;;;11.35;6.50;;;;;;;26.37;18.12;93804.69;5108968;28;20022;-58
2021/11/12 11:00:20;;;;;;;8.43;4.97;;;;;;;26.73;17.82;93798.41;5107506;28;20028;-58
2021/11/12 11:02:53;;;;;;;11.20;6.03;;;;;;;26.90;17.17;93791.25;5101949;28;20042;-58
2021/11/12 11:05:24;;;;;;;8.10;6.60;;;;;;;26.74;17.32;93787.81;5106502;27;20020;-57
2021/11/12 11:07:55;;;;;;;7.38;4.97;;;;;;;26.69;17.17;93788.97;5091540;28;20016;-59
2021/11/12 11:10:34;;;;;;;6.57;4.40;;;;;;;26.28;17.39;93787.38;5091329;28;20039;-59
2021/11/12 11:13:09;;;;;;;22.05;12.00;;;;;;;26.85;17.86;93784.00;5100050;28;20023;-59
2021/11/12 11:15:41;;;;;;;12.82;7.88;;;;;;;27.46;17.36;93787.75;5110410;28;20034;-59
2021/11/12 11:18:19;;;;;;;7.68;4.53;;;;;;;27.71;17.51;93786.53;5109991;28;20020;-59
2021/11/12 11:20:56;;;;;;;6.30;4.32;;;;;;;27.07;18.04;93778.44;5110265;28;20094;-59
2021/11/12 11:23:22;;;;;;;3.33;2.50;;;;;;;27.04;18.35;93778.38;5110998;28;20047;-59
2021/11/12 11:26:05;;;;;;;5.13;3.40;;;;;;;26.39;18.07;93773.63;5110650;28;20024;-59
2021/11/12 11:28:32;;;;;;;3.28;2.75;;;;;;;25.55;18.29;93779.97;5110825;27;20507;-59
2021/11/12 11:31:03;;;;;;;9.63;3.92;;;;;;;25.50;17.71;93776.25;5110402;28;20062;-59
2021/11/12 11:33:29;;;;;;;7.45;5.15;;;;;;;25.55;18.17;93769.38;5094656;28;20032;-60
2021/11/12 11:35:57;;;;;;;9.63;4.47;;;;;;;25.25;18.18;93772.94;5090576;28;20027;-59
2021/11/12 11:38:28;;;;;;;4.82;2.30;;;;;;;25.52;18.07;93767.09;5090727;28;20036;-59
2021/11/12 11:40:55;;;;;;;21.77;3.85;;;;;;;25.35;17.52;93764.91;5091033;28;20063;-59
2021/11/12 11:43:21;;;;;;;8.93;2.22;;;;;;;25.50;17.36;93758.53;5107206;28;20050;-58
2021/11/12 11:45:47;;;;;;;13.60;5.68;;;;;;;25.52;17.79;93767.84;5111368;28;20396;-59
2021/11/12 11:48:15;;;;;;;9.68;2.85;;;;;;;25.49;16.85;93762.75;5109759;28;20106;-59
2021/11/12 11:50:58;;;;;;;12.18;5.30;;;;;;;25.29;17.15;93737.13;5105022;28;20031;-57
2021/11/12 11:53:25;;;;;;;9.50;3.25;;;;;;;24.79;17.32;93755.34;5092416;28;20023;-59
2021/11/12 11:55:52;;;;;;;4.15;2.40;;;;;;;24.63;17.70;93748.19;5098342;28;20727;-58
2021/11/12 11:58:32;;;;;;;4.20;2.50;;;;;;;24.45;17.40;93755.81;5103183;28;20493;-57
2021/11/12 12:01:18;;;;;;;10.23;3.60;;;;;;;24.43;17.85;93752.91;5098723;27;20571;-57
2021/11/12 12:04:05;;;;;;;6.05;2.67;;;;;;;23.95;17.19;93751.97;5071792;28;20138;-58
2021/11/12 12:06:30;;;;;;;2.25;1.50;;;;;;;23.61;18.09;93749.50;5078790;28;20082;-59
2021/11/12 12:09:16;;;;;;;2.40;1.77;;;;;;;23.75;17.29;93744.59;5090234;28;20064;-57
2021/11/12 12:11:54;;;;;;;4.60;2.50;;;;;;;22.88;18.04;93751.38;5090729;28;20024;-58
2021/11/12 12:14:27;;;;;;;8.27;2.20;;;;;;;22.52;19.35;93752.91;5090460;28;20477;-58
2021/11/12 12:17:12;;;;;;;4.80;2.28;;;;;;;22.53;19.12;93748.00;5090448;28;20024;-57
2021/11/12 12:19:55;;;;;;;2.33;1.80;;;;;;;22.25;18.28;93743.66;5090740;28;20040;-57
2021/11/12 13:22:58;;;;;;;2.63;1.95;;;;;;;18.27;20.38;93750.66;5114253;27;20949;-57
2021/11/12 13:25:26;;;;;;;2.28;2.00;;;;;;;18.33;20.62;93748.28;5114096;28;20035;-57
2021/11/12 13:28:13;;;;;;;2.10;1.85;;;;;;;18.29;21.07;93750.78;5113927;28;20026;-57
2021/11/12 13:30:41;;;;;;;3.83;1.60;;;;;;;18.21;20.31;93752.28;5113769;28;20084;-58
2021/11/12 13:33:24;;;;;;;5.68;2.10;;;;;;;18.06;21.52;93742.88;5113458;28;20024;-58
2021/11/12 13:35:49;;;;;;;1.88;1.67;;;;;;;18.06;19.94;93748.47;5108356;28;20012;-58
2021/11/12 13:38:15;;;;;;;2.08;1.75;;;;;;;17.83;19.96;93750.28;5093081;28;20555;-57
2021/11/12 13:40:40;;;;;;;2.40;1.80;;;;;;;17.80;20.57;93749.41;5093327;28;20032;-57
2021/11/12 13:43:06;;;;;;;2.25;1.95;;;;;;;17.52;20.51;93752.94;5093077;28;20062;-57
2021/11/12 13:45:31;;;;;;;5.78;2.30;;;;;;;17.32;21.10;93748.63;5093057;28;20103;-59
2021/11/12 13:48:12;;;;;;;3.50;2.45;;;;;;;17.42;21.34;93749.38;5092972;28;20119;-57
2021/11/12 13:50:45;;;;;;;2.30;1.73;;;;;;;17.42;22.24;93752.16;5091425;28;20568;-58
2021/11/12 13:53:11;;;;;;;3.20;1.70;;;;;;;17.23;22.17;93746.56;5089671;28;20129;-59
2021/11/12 13:55:38;;;;;;;5.65;1.92;;;;;;;17.11;22.95;93763.13;5090030;28;20032;-58
2021/11/12 13:58:05;;;;;;;3.05;2.10;;;;;;;16.92;23.33;93765.88;5090570;28;20493;-50
2021/11/12 14:00:32;;;;;;;3.15;1.80;;;;;;;16.95;23.40;93763.97;5090925;28;20088;-52
2021/11/12 14:03:11;;;;;;;4.25;2.38;;;;;;;16.71;24.51;93764.94;5102842;28;20474;-53
2021/11/12 14:05:39;;;;;;;4.70;2.20;;;;;;;16.56;24.52;93768.69;5108826;28;20038;-50
2021/11/12 14:08:08;;;;;;;5.45;2.20;;;;;;;16.34;25.30;93766.94;5101953;28;20008;-50
2021/11/12 14:10:37;;;;;;;2.53;1.90;;;;;;;16.07;26.27;93772.50;5098335;28;20116;-50
2021/11/12 14:13:05;;;;;;;8.57;2.70;;;;;;;16.13;25.90;93767.44;5090511;28;20027;-55
2021/11/12 14:15:39;;;;;;;3.55;2.17;;;;;;;15.74;26.36;93740.66;5090376;28;20028;-52
2021/11/12 14:24:02;;;;;;;2.22;2.00;;;;;;;15.35;27.41;93775.00;5092189;28;20110;-50
2021/11/12 14:29:12;;;;;;;6.25;3.22;;;;;;;15.15;28.80;93777.63;5098268;28;20142;-51
2021/11/12 14:36:54;;;;;;;5.22;2.40;;;;;;;14.68;29.88;93786.19;5093712;28;20059;-55
2021/11/12 14:45:10;;;;;;;3.97;2.53;;;;;;;14.28;31.01;93789.03;5098498;28;20150;-55
2021/11/12 14:47:43;;;;;;;6.82;2.70;;;;;;;14.25;31.69;93794.97;5090504;28;20059;-54
2021/11/12 14:50:35;;;;;;;3.33;2.50;;;;;;;14.13;31.75;93793.94;5099717;28;20023;-54
2021/11/12 14:53:06;;;;;;;5.45;2.30;;;;;;;14.08;32.27;93794.88;5098347;28;20128;-56
2021/11/12 14:55:33;;;;;;;3.10;2.58;;;;;;;13.85;33.23;93803.31;5098638;28;20019;-56
2021/11/12 14:57:59;;;;;;;9.18;2.78;;;;;;;13.49;36.84;93803.63;5095948;28;20016;-56
2021/11/12 15:00:27;;;;;;;3.58;2.45;;;;;;;13.57;35.70;93820.25;5093494;28;20023;-54
2021/11/12 15:02:53;;;;;;;9.63;2.75;;;;;;;13.62;36.27;93808.22;5097395;28;20030;-55
2021/11/12 15:05:19;;;;;;;7.45;2.80;;;;;;;13.28;38.11;93821.78;5096221;28;20028;-56
2021/11/12 15:07:50;;;;;;;9.10;3.50;;;;;;;13.02;38.70;93813.84;5094719;28;20096;-56
2021/11/12 15:10:22;;;;;;;5.18;3.40;;;;;;;12.67;39.10;93813.50;5095496;28;20410;-55
2021/11/12 15:12:50;;;;;;;4.75;4.20;;;;;;;12.66;38.32;93817.56;5098572;28;20032;-56
2021/11/12 15:15:16;;;;;;;4.00;2.90;;;;;;;12.54;38.73;93821.25;5097725;28;20504;-55
2021/11/12 15:17:42;;;;;;;5.32;3.20;;;;;;;12.44;39.45;93829.38;5096781;28;20431;-56
2021/11/12 15:20:08;;;;;;;16.73;3.45;;;;;;;12.29;41.10;93826.56;5097070;28;20036;-55
2021/11/12 15:25:18;;;;;;;21.33;3.80;;;;;;;11.81;41.55;93819.97;5097856;28;20043;-56
2021/11/12 15:28:07;;;;;;;9.10;2.95;;;;;;;11.46;42.72;93825.53;5098938;28;20077;-57
2021/11/12 15:30:40;;;;;;;5.43;2.80;;;;;;;11.58;42.10;93832.97;5099904;28;20032;-56
2021/11/12 15:33:07;;;;;;;4.00;2.95;;;;;;;11.43;42.36;93841.19;5098742;28;20038;-56
2021/11/12 15:35:34;;;;;;;5.07;3.60;;;;;;;11.44;42.94;93837.13;5096574;28;20032;-56
2021/11/12 15:48:14;;;;;;;6.97;4.13;;;;;;;10.91;44.63;93847.84;5108998;28;20530;-56
2021/11/12 15:56:19;;;;;;;11.18;5.28;;;;;;;10.51;45.00;93861.13;5096561;28;20107;-57
2021/11/12 16:01:22;;;;;;;8.85;5.18;;;;;;;10.48;45.98;93864.94;5093490;28;20523;-57
2021/11/12 16:14:36;;;;;;;5.18;3.45;;;;;;;10.46;46.02;93878.56;5095848;28;20077;-54
2021/11/12 16:17:28;;;;;;;6.15;3.88;;;;;;;10.38;46.13;93875.00;5098465;28;20026;-50
2021/11/12 16:27:36;;;;;;;12.63;5.90;;;;;;;9.98;47.08;93883.91;5104684;28;20020;-49
2021/11/12 16:30:05;;;;;;;5.97;4.20;;;;;;;9.85;48.27;93885.41;5096320;28;20027;-50
2021/11/12 16:32:44;;;;;;;7.35;4.97;;;;;;;9.90;49.09;93892.06;5105139;28;20114;-49
2021/11/12 16:35:14;;;;;;;6.95;4.45;;;;;;;9.58;48.35;93888.72;5095589;28;20028;-58
2021/11/12 16:37:40;;;;;;;8.55;4.43;;;;;;;9.46;49.87;93887.47;5099173;28;20047;-47
2021/11/12 16:47:46;;;;;;;5.75;4.13;;;;;;;9.18;50.00;93885.25;5108205;28;20598;-57
2021/11/12 16:58:06;;;;;;;9.30;6.35;;;;;;;8.66;51.53;93885.94;5107367;28;20107;-59
2021/11/12 17:11:12;;;;;;;5.40;4.47;;;;;;;8.54;51.93;93889.38;5100459;28;20063;-59
2021/11/12 17:13:46;;;;;;;5.10;3.70;;;;;;;8.45;52.35;93887.75;5102913;28;20405;-59
2021/11/12 17:46:40;;;;;;;34.30;19.00;;;;;;;6.68;57.85;93901.66;5101573;28;20080;-59
2021/11/12 18:02:34;;;;;;;40.90;22.30;;;;;;;6.58;57.68;93894.28;5103181;28;20026;-59
2021/11/12 21:47:18;;;;;;;64.25;30.15;;;;;;;2.25;66.34;93920.25;5111374;28;20035;-59
2021/11/12 21:49:44;;;;;;;53.72;30.75;;;;;;;2.25;66.15;93920.97;5111206;28;20419;-57
2021/11/12 21:52:09;;;;;;;48.13;25.88;;;;;;;2.26;65.76;93919.75;5091263;28;20027;-59
2021/11/12 21:54:35;;;;;;;30.48;17.10;;;;;;;2.12;65.89;93917.16;5095817;28;20062;-60
2021/11/12 21:57:01;;;;;;;36.75;20.10;;;;;;;2.23;65.34;93922.72;5104779;28;20122;-60
2021/11/12 21:59:28;;;;;;;44.90;23.48;;;;;;;2.15;65.93;93918.91;5093353;28;20038;-57
2021/11/12 22:01:54;;;;;;;49.38;25.55;;;;;;;2.10;66.25;93912.19;5094190;28;20034;-56